createdAt,value
2022-12-18T00:01:36.062Z,16.7
2022-12-18T00:06:38.379Z,16.4
2022-12-18T00:11:41.582Z,17
2022-12-18T00:16:43.813Z,16.9
2022-12-18T00:21:46.028Z,17.1
2022-12-18T00:26:47.966Z,16.9
2022-12-18T00:31:50.113Z,16.7
2022-12-18T00:36:52.494Z,16.7
2022-12-18T00:41:54.553Z,16.7
2022-12-18T00:46:56.695Z,17.6
2022-12-18T00:51:58.778Z,18
2022-12-18T00:57:00.873Z,16.7
2022-12-18T01:02:03.219Z,17.5
2022-12-18T01:07:05.869Z,17.9
2022-12-18T01:12:07.931Z,18.5
2022-12-18T01:17:09.933Z,17.4
2022-12-18T01:22:11.909Z,18
2022-12-18T01:27:13.952Z,18
2022-12-18T01:32:16.083Z,18.2
2022-12-18T01:37:18.174Z,17.8
2022-12-18T01:42:20.231Z,18.5
2022-12-18T01:47:22.141Z,18.2
2022-12-18T01:52:24.236Z,18.2
2022-12-18T01:57:26.393Z,17.9
2022-12-18T02:02:28.855Z,17.9
2022-12-18T02:07:31.467Z,18.3
2022-12-18T02:12:33.854Z,18.4
2022-12-18T02:17:36.028Z,17.9
2022-12-18T02:22:39.586Z,18.3
2022-12-18T02:27:41.558Z,18.1
2022-12-18T02:32:43.910Z,17.8
2022-12-18T02:37:45.942Z,17.6
2022-12-18T02:42:48.378Z,17.5
2022-12-18T02:47:50.924Z,18.5
2022-12-18T02:52:53.323Z,18.5
2022-12-18T02:57:55.439Z,18.5
2022-12-18T03:02:58.244Z,18.1
2022-12-18T03:08:00.961Z,18.6
2022-12-18T03:13:03.036Z,18.5
2022-12-18T03:18:05.415Z,18
2022-12-18T03:23:07.614Z,20
2022-12-18T03:28:09.710Z,19.2
2022-12-18T03:33:11.726Z,19.1
2022-12-18T03:38:13.659Z,19.5
2022-12-18T03:43:16.022Z,18.6
2022-12-18T03:48:19.324Z,19
2022-12-18T03:53:21.720Z,19.2
2022-12-18T03:58:23.814Z,19
2022-12-18T04:03:27.618Z,20
2022-12-18T04:08:29.876Z,19.2
2022-12-18T04:13:32.279Z,19.2
2022-12-18T04:18:35.211Z,20.2
2022-12-18T04:23:37.823Z,18.7
2022-12-18T04:28:41.226Z,19.1
2022-12-18T04:33:43.785Z,19.3
2022-12-18T04:38:46.226Z,20.1
2022-12-18T04:43:48.280Z,19.8
2022-12-18T04:48:50.226Z,20.9
2022-12-18T04:53:52.192Z,20.2
2022-12-18T04:58:54.328Z,22.2
2022-12-18T05:03:56.534Z,21.2
2022-12-18T05:08:59.111Z,24.3
2022-12-18T05:14:03.921Z,19.5
2022-12-18T05:19:06.017Z,20
2022-12-18T05:24:08.411Z,19.6
2022-12-18T05:29:10.700Z,21
2022-12-18T05:34:13.863Z,40.2
2022-12-18T05:39:17.105Z,21.4
2022-12-18T05:44:19.599Z,20.1
2022-12-18T05:49:21.855Z,20.1
2022-12-18T05:54:23.886Z,20.8
2022-12-18T05:59:25.960Z,22.1
2022-12-18T06:04:28.137Z,20.8
2022-12-18T06:09:30.102Z,21.1
2022-12-18T06:14:32.181Z,24.2
2022-12-18T06:19:34.172Z,24.1
2022-12-18T06:24:36.095Z,20.8
2022-12-18T06:29:38.171Z,20.4
2022-12-18T06:34:40.370Z,21.3
2022-12-18T06:39:42.315Z,20.9
2022-12-18T06:44:44.430Z,21.4
2022-12-18T06:49:46.719Z,21.5
2022-12-18T06:54:49.540Z,23.5
2022-12-18T06:59:52.240Z,23.8
2022-12-18T07:04:54.562Z,21.5
2022-12-18T07:09:56.977Z,21.4
2022-12-18T07:14:59.535Z,20.7
2022-12-18T07:20:01.996Z,21.2
2022-12-18T07:25:03.948Z,20.8
2022-12-18T07:30:05.849Z,21.2
2022-12-18T07:35:07.832Z,21.2
2022-12-18T07:40:10.099Z,22.3
2022-12-18T07:45:12.453Z,23.6
2022-12-18T07:50:14.639Z,24.4
2022-12-18T07:55:16.706Z,22.6
2022-12-18T08:00:18.784Z,22.3
2022-12-18T08:05:22.658Z,21.5
2022-12-18T08:10:24.660Z,29.8
2022-12-18T08:15:25.880Z,19.3
2022-12-18T08:20:28.252Z,19.8
2022-12-18T08:25:30.428Z,18.3
2022-12-18T08:30:33.101Z,19.4
2022-12-18T08:35:45.549Z,19.5
2022-12-18T08:40:38.403Z,20.4
2022-12-18T08:45:40.444Z,19.8
2022-12-18T08:50:43.076Z,20.7
2022-12-18T08:55:51.014Z,20.7
2022-12-18T09:00:51.876Z,28.4
2022-12-18T09:05:52.494Z,19.6
2022-12-18T09:10:54.520Z,21.8
2022-12-18T09:15:56.577Z,21.9
2022-12-18T09:22:10.960Z,22.4
2022-12-18T09:27:12.870Z,20.5
2022-12-18T09:32:22.540Z,20.3
2022-12-18T09:37:24.960Z,20.9
2022-12-18T09:42:26.903Z,20.4
2022-12-18T09:47:29.046Z,21.6
2022-12-18T09:52:31.266Z,17.9
2022-12-18T09:57:33.396Z,20.4
2022-12-18T10:02:35.582Z,19.9
2022-12-18T10:07:38.201Z,20.2
2022-12-18T10:12:40.189Z,17.6
2022-12-18T10:17:42.375Z,15.1
2022-12-18T10:22:44.597Z,16.4
2022-12-18T10:27:46.611Z,19.1
2022-12-18T10:32:48.540Z,18.8
2022-12-18T10:37:50.932Z,19.5
2022-12-18T10:42:53.593Z,20.2
2022-12-18T10:47:55.573Z,20.8
2022-12-18T10:52:57.813Z,18.5
2022-12-18T10:58:00.674Z,18.9
2022-12-18T11:03:03.040Z,21.9
2022-12-18T11:08:06.385Z,19.9
2022-12-18T11:13:08.507Z,21.2
2022-12-18T11:18:10.453Z,18.5
2022-12-18T11:23:12.774Z,18.7
2022-12-18T11:28:14.910Z,18.6
2022-12-18T11:33:16.788Z,16.2
2022-12-18T11:38:18.732Z,17
2022-12-18T11:43:21.200Z,16.6
2022-12-18T11:48:23.279Z,16
2022-12-18T11:53:25.226Z,23.1
2022-12-18T11:58:31.979Z,16.8
2022-12-18T12:03:34.229Z,16.5
2022-12-18T12:08:36.252Z,17.4
2022-12-18T12:13:38.666Z,14.9
2022-12-18T12:18:43.403Z,14.4
2022-12-18T12:23:46.151Z,14.4
2022-12-18T12:28:48.592Z,14.6
2022-12-18T12:33:50.579Z,13.7
2022-12-18T12:38:53.457Z,12.8
2022-12-18T12:43:56.150Z,12.7
2022-12-18T12:48:59.575Z,13.2
2022-12-18T12:54:02.593Z,13.3
2022-12-18T12:59:07.349Z,12.8
2022-12-18T13:04:09.580Z,14.2
2022-12-18T13:09:14.645Z,13.3
2022-12-18T13:14:18.142Z,13.4
2022-12-18T13:19:21.144Z,12
2022-12-18T13:24:23.404Z,11.1
2022-12-18T13:29:26.902Z,10.8
2022-12-18T13:34:32.330Z,10.8
2022-12-18T13:39:36.950Z,10.7
2022-12-18T13:44:42.457Z,15.5
2022-12-18T13:49:42.856Z,10.7
2022-12-18T13:54:46.350Z,14.6
2022-12-18T13:59:47.468Z,10.3
2022-12-18T14:04:49.792Z,10.6
2022-12-18T14:09:52.242Z,10.5
2022-12-18T14:14:56.147Z,11
2022-12-18T14:19:59.428Z,12.2
2022-12-18T14:25:01.846Z,12.3
2022-12-18T14:30:07.891Z,12.2
2022-12-18T14:35:10.152Z,12.3
2022-12-18T14:40:13.903Z,13.9
2022-12-18T14:45:16.314Z,14
2022-12-18T14:50:19.764Z,15.5
2022-12-18T14:55:23.002Z,15.6
2022-12-18T15:00:25.295Z,19.5
2022-12-18T15:05:27.382Z,17.2
2022-12-18T15:10:29.461Z,16.7
2022-12-18T15:15:31.710Z,16.4
2022-12-18T15:20:33.871Z,16.7
2022-12-18T15:25:36.126Z,15.6
2022-12-18T15:30:38.134Z,16.1
2022-12-18T15:35:47.435Z,16.2
2022-12-18T15:40:49.757Z,16.9
2022-12-18T15:45:52.124Z,17.2
2022-12-18T15:50:54.342Z,17.1
2022-12-18T15:56:01.793Z,18.2
2022-12-18T16:01:04.769Z,16.6
2022-12-18T16:06:07.691Z,17.4
2022-12-18T16:11:10.307Z,17.8
2022-12-18T16:16:12.573Z,16.4
2022-12-18T16:21:15.262Z,16.5
2022-12-18T16:31:29.291Z,27.7
2022-12-18T16:36:32.761Z,18.3
2022-12-18T16:41:34.851Z,18
2022-12-18T16:46:36.976Z,19.7
2022-12-18T16:51:39.553Z,18.4
2022-12-18T16:56:41.792Z,18.9
2022-12-18T17:01:44.204Z,19.8
2022-12-18T17:06:47.114Z,20.3
2022-12-18T17:11:49.404Z,19.9
2022-12-18T17:17:22.953Z,21.6
2022-12-18T17:21:56.011Z,23.2
2022-12-18T17:26:58.075Z,22.8
2022-12-18T17:32:01.247Z,22.7
2022-12-18T17:37:03.673Z,21.7
2022-12-18T17:42:08.358Z,22
2022-12-18T17:47:06.697Z,21.2
2022-12-18T17:52:09.025Z,23
2022-12-18T17:57:11.476Z,22.7
2022-12-18T18:02:15.025Z,21.7
2022-12-18T18:07:20.159Z,22.8
2022-12-18T18:12:22.652Z,22.7
2022-12-18T18:17:25.255Z,22.4
2022-12-18T18:22:27.422Z,23.6
2022-12-18T18:27:38.476Z,23.4
2022-12-18T18:32:31.281Z,26.1
2022-12-18T18:37:34.746Z,24.7
2022-12-18T18:42:36.983Z,24.5
2022-12-18T18:47:39.127Z,23.4
2022-12-18T18:52:42.843Z,22.8
2022-12-18T18:57:49.801Z,23.6
2022-12-18T19:03:00.725Z,23.9
2022-12-18T19:07:53.522Z,26.8
2022-12-18T19:12:55.536Z,30.1
2022-12-18T19:17:57.959Z,30.2
2022-12-18T19:23:00.298Z,26.8
2022-12-18T19:28:05.734Z,25.8
2022-12-18T19:33:43.650Z,25.6
2022-12-18T19:38:16.482Z,25.8
2022-12-18T19:43:18.656Z,26.1
2022-12-18T19:48:21.965Z,26.1
2022-12-18T19:53:24.140Z,28.5
2022-12-18T19:58:26.268Z,27.6
2022-12-18T20:03:33.365Z,27.2
2022-12-18T20:08:35.894Z,27.2
2022-12-18T20:13:39.606Z,25.7
2022-12-18T20:18:46.242Z,26.5
2022-12-18T20:23:54.115Z,26.9
2022-12-18T20:28:57.598Z,28.1
2022-12-18T20:34:05.088Z,26.9
2022-12-18T20:39:07.566Z,28.8
2022-12-18T20:44:24.386Z,26.5
2022-12-18T20:49:16.974Z,28.8
2022-12-18T20:54:19.248Z,31.3
2022-12-18T20:59:21.394Z,29.9
2022-12-18T21:04:31.706Z,29.7
2022-12-18T21:09:24.871Z,28.1
2022-12-18T21:14:26.989Z,28.6
2022-12-18T21:19:29.819Z,34.9
2022-12-18T21:24:34.190Z,31.9
2022-12-18T21:29:36.455Z,35
2022-12-18T21:34:40.293Z,38.6
2022-12-18T21:39:39.502Z,38.5
2022-12-18T21:44:42.940Z,41.5
2022-12-18T21:49:45.346Z,42.2
2022-12-18T21:54:48.052Z,61.9
2022-12-18T21:59:48.470Z,83.2
2022-12-18T22:04:48.973Z,53.6
2022-12-18T22:09:51.387Z,48.8
2022-12-18T22:14:53.383Z,39.8
2022-12-18T22:19:55.856Z,36.5
2022-12-18T22:24:58.231Z,35.1
2022-12-18T22:30:00.353Z,33.2
2022-12-18T22:35:12.855Z,30.8
2022-12-18T22:40:08.613Z,32.2
2022-12-18T22:45:14.353Z,31.8
2022-12-18T22:50:16.381Z,31.3
2022-12-18T22:55:18.329Z,65
2022-12-18T23:00:25.217Z,31.2
2022-12-18T23:05:20.811Z,34.1
2022-12-18T23:10:22.726Z,31.5
2022-12-18T23:15:29.939Z,35.4
2022-12-18T23:20:32.717Z,30.6
2022-12-18T23:25:39.292Z,32.4
2022-12-18T23:30:41.339Z,33.2
2022-12-18T23:35:43.611Z,31.8
2022-12-18T23:40:48.018Z,31.4
2022-12-18T23:45:55.743Z,32.6
2022-12-18T23:50:48.116Z,33.3
2022-12-18T23:55:52.424Z,33
